sensor_id;sensor_type;location;lat;lon;timestamp;pressure;altitude;pressure_sealevel;temperature;humidity
12349;BME280;5974;42.710;27.258;2023-06-14T00:00:02;99807.16;;;15.53;100.00
12349;BME280;5974;42.710;27.258;2023-06-14T00:02:30;99789.28;;;15.70;100.00
12349;BME280;5974;42.710;27.258;2023-06-14T00:04:57;99799.63;;;15.86;100.00
12349;BME280;5974;42.710;27.258;2023-06-14T00:07:34;99797.66;;;15.90;100.00
12349;BME280;5974;42.710;27.258;2023-06-14T00:10:02;99800.69;;;16.09;100.00
12349;BME280;5974;42.710;27.258;2023-06-14T00:12:30;99789.75;;;16.02;100.00
12349;BME280;5974;42.710;27.258;2023-06-14T00:14:58;99787.84;;;16.17;100.00
12349;BME280;5974;42.710;27.258;2023-06-14T00:17:26;99782.16;;;16.10;100.00
12349;BME280;5974;42.710;27.258;2023-06-14T00:19:55;99779.38;;;16.12;100.00
12349;BME280;5974;42.710;27.258;2023-06-14T00:22:23;99776.44;;;16.16;100.00
12349;BME280;5974;42.710;27.258;2023-06-14T00:24:51;99772.97;;;16.28;100.00
12349;BME280;5974;42.710;27.258;2023-06-14T00:27:18;99776.94;;;16.47;100.00
12349;BME280;5974;42.710;27.258;2023-06-14T00:29:44;99783.06;;;16.72;100.00
12349;BME280;5974;42.710;27.258;2023-06-14T00:32:13;99770.91;;;16.83;100.00
12349;BME280;5974;42.710;27.258;2023-06-14T00:34:40;99770.63;;;16.98;100.00
12349;BME280;5974;42.710;27.258;2023-06-14T00:37:07;99765.19;;;16.89;100.00
12349;BME280;5974;42.710;27.258;2023-06-14T00:39:34;99766.84;;;16.90;100.00
12349;BME280;5974;42.710;27.258;2023-06-14T00:42:00;99766.53;;;16.94;100.00
12349;BME280;5974;42.710;27.258;2023-06-14T00:44:27;99761.41;;;16.67;100.00
12349;BME280;5974;42.710;27.258;2023-06-14T00:46:54;99757.59;;;16.84;100.00
12349;BME280;5974;42.710;27.258;2023-06-14T00:49:23;99752.94;;;16.88;100.00
12349;BME280;5974;42.710;27.258;2023-06-14T00:51:50;99748.50;;;16.88;100.00
12349;BME280;5974;42.710;27.258;2023-06-14T00:54:17;99746.41;;;16.80;100.00
12349;BME280;5974;42.710;27.258;2023-06-14T00:56:44;99755.44;;;16.89;100.00
12349;BME280;5974;42.710;27.258;2023-06-14T00:59:11;99751.59;;;17.06;100.00
12349;BME280;5974;42.710;27.258;2023-06-14T01:01:38;99745.38;;;17.07;100.00
12349;BME280;5974;42.710;27.258;2023-06-14T01:04:05;99744.00;;;17.25;100.00
12349;BME280;5974;42.710;27.258;2023-06-14T01:06:40;99745.81;;;17.24;100.00
12349;BME280;5974;42.710;27.258;2023-06-14T01:09:15;99739.06;;;17.20;100.00
12349;BME280;5974;42.710;27.258;2023-06-14T01:11:50;99753.69;;;17.13;100.00
12349;BME280;5974;42.710;27.258;2023-06-14T01:14:21;99745.41;;;17.18;100.00
12349;BME280;5974;42.710;27.258;2023-06-14T01:16:49;99747.38;;;17.03;100.00
12349;BME280;5974;42.710;27.258;2023-06-14T01:19:18;99747.09;;;17.19;100.00
12349;BME280;5974;42.710;27.258;2023-06-14T01:21:49;99740.34;;;17.15;100.00
12349;BME280;5974;42.710;27.258;2023-06-14T01:24:17;99740.47;;;17.13;100.00
12349;BME280;5974;42.710;27.258;2023-06-14T01:26:51;99743.47;;;17.20;100.00
12349;BME280;5974;42.710;27.258;2023-06-14T01:29:22;99745.97;;;17.10;100.00
12349;BME280;5974;42.710;27.258;2023-06-14T01:31:49;99740.34;;;17.15;100.00
12349;BME280;5974;42.710;27.258;2023-06-14T01:34:16;99740.66;;;17.10;100.00
12349;BME280;5974;42.710;27.258;2023-06-14T01:36:44;99741.84;;;17.30;100.00
12349;BME280;5974;42.710;27.258;2023-06-14T01:39:14;99739.41;;;17.16;100.00
12349;BME280;5974;42.710;27.258;2023-06-14T01:41:43;99696.00;;;16.84;100.00
12349;BME280;5974;42.710;27.258;2023-06-14T01:44:12;99740.47;;;17.13;100.00
12349;BME280;5974;42.710;27.258;2023-06-14T01:46:42;99742.13;;;17.14;100.00
12349;BME280;5974;42.710;27.258;2023-06-14T01:49:09;99749.94;;;16.92;100.00
12349;BME280;5974;42.710;27.258;2023-06-14T01:51:36;99735.91;;;17.15;100.00
12349;BME280;5974;42.710;27.258;2023-06-14T01:54:03;99741.81;;;17.19;100.00
12349;BME280;5974;42.710;27.258;2023-06-14T01:56:31;99736.75;;;17.16;100.00
12349;BME280;5974;42.710;27.258;2023-06-14T01:58:59;99744.06;;;17.12;100.00
12349;BME280;5974;42.710;27.258;2023-06-14T02:01:26;99748.00;;;17.07;100.00
12349;BME280;5974;42.710;27.258;2023-06-14T02:03:53;99745.81;;;17.24;100.00
12349;BME280;5974;42.710;27.258;2023-06-14T02:06:20;99757.50;;;17.09;100.00
12349;BME280;5974;42.710;27.258;2023-06-14T02:08:47;99744.91;;;17.13;100.00
12349;BME280;5974;42.710;27.258;2023-06-14T02:11:14;99745.19;;;17.21;100.00
12349;BME280;5974;42.710;27.258;2023-06-14T02:13:41;99751.75;;;17.15;100.00
12349;BME280;5974;42.710;27.258;2023-06-14T02:16:09;99750.28;;;17.35;100.00
12349;BME280;5974;42.710;27.258;2023-06-14T02:18:36;99734.09;;;17.40;100.00
12349;BME280;5974;42.710;27.258;2023-06-14T02:21:03;99750.03;;;17.38;100.00
12349;BME280;5974;42.710;27.258;2023-06-14T02:23:30;99750.63;;;17.30;100.00
12349;BME280;5974;42.710;27.258;2023-06-14T02:25:57;99750.41;;;17.33;100.00
12349;BME280;5974;42.710;27.258;2023-06-14T02:28:24;99750.97;;;17.26;100.00
12349;BME280;5974;42.710;27.258;2023-06-14T02:30:51;99753.72;;;17.24;100.00
12349;BME280;5974;42.710;27.258;2023-06-14T02:33:19;99754.06;;;17.20;100.00
12349;BME280;5974;42.710;27.258;2023-06-14T02:35:47;99759.06;;;17.12;100.00
12349;BME280;5974;42.710;27.258;2023-06-14T02:38:14;99756.59;;;17.21;100.00
12349;BME280;5974;42.710;27.258;2023-06-14T02:40:41;99759.19;;;17.34;100.00
12349;BME280;5974;42.710;27.258;2023-06-14T02:43:08;99766.59;;;17.29;100.00
12349;BME280;5974;42.710;27.258;2023-06-14T02:45:35;99759.47;;;17.18;100.00
12349;BME280;5974;42.710;27.258;2023-06-14T02:48:02;99760.72;;;17.25;100.00
12349;BME280;5974;42.710;27.258;2023-06-14T02:50:30;99766.66;;;17.40;100.00
12349;BME280;5974;42.710;27.258;2023-06-14T02:52:57;99767.59;;;17.39;100.00
12349;BME280;5974;42.710;27.258;2023-06-14T02:55:24;99764.47;;;17.58;100.00
12349;BME280;5974;42.710;27.258;2023-06-14T02:57:51;99761.00;;;17.45;100.00
12349;BME280;5974;42.710;27.258;2023-06-14T03:00:19;99766.78;;;17.62;100.00
12349;BME280;5974;42.710;27.258;2023-06-14T03:02:47;99767.50;;;17.64;100.00
12349;BME280;5974;42.710;27.258;2023-06-14T03:05:16;99777.16;;;17.53;100.00
12349;BME280;5974;42.710;27.258;2023-06-14T03:07:48;99777.91;;;17.31;100.00
12349;BME280;5974;42.710;27.258;2023-06-14T03:10:16;99780.09;;;17.37;100.00
12349;BME280;5974;42.710;27.258;2023-06-14T03:12:42;99772.53;;;17.56;100.00
12349;BME280;5974;42.710;27.258;2023-06-14T03:15:10;99767.41;;;17.77;100.00
12349;BME280;5974;42.710;27.258;2023-06-14T03:17:38;99769.44;;;17.73;100.00
12349;BME280;5974;42.710;27.258;2023-06-14T03:20:07;99773.81;;;17.85;100.00
12349;BME280;5974;42.710;27.258;2023-06-14T03:22:34;99774.28;;;17.79;100.00
12349;BME280;5974;42.710;27.258;2023-06-14T03:25:05;99771.91;;;17.99;100.00
12349;BME280;5974;42.710;27.258;2023-06-14T03:27:32;99771.22;;;18.08;100.00
12349;BME280;5974;42.710;27.258;2023-06-14T03:29:59;99774.84;;;18.29;100.00
12349;BME280;5974;42.710;27.258;2023-06-14T03:32:26;99772.56;;;18.47;100.00
12349;BME280;5974;42.710;27.258;2023-06-14T03:34:53;99765.00;;;18.64;100.00
12349;BME280;5974;42.710;27.258;2023-06-14T03:37:20;99764.06;;;18.54;100.00
12349;BME280;5974;42.710;27.258;2023-06-14T03:39:47;99772.69;;;18.45;100.00
12349;BME280;5974;42.710;27.258;2023-06-14T03:42:16;99768.56;;;18.08;100.00
12349;BME280;5974;42.710;27.258;2023-06-14T03:44:42;99727.44;;;18.37;100.00
12349;BME280;5974;42.710;27.258;2023-06-14T03:47:10;99760.63;;;18.97;100.00
12349;BME280;5974;42.710;27.258;2023-06-14T03:49:36;99767.63;;;19.29;100.00
12349;BME280;5974;42.710;27.258;2023-06-14T03:52:04;99765.72;;;19.31;100.00
12349;BME280;5974;42.710;27.258;2023-06-14T03:54:31;99776.47;;;20.24;100.00
12349;BME280;5974;42.710;27.258;2023-06-14T03:56:58;99749.72;;;22.76;100.00
12349;BME280;5974;42.710;27.258;2023-06-14T03:59:26;99742.16;;;22.89;100.00
12349;BME280;5974;42.710;27.258;2023-06-14T04:01:54;99742.38;;;25.77;98.37
12349;BME280;5974;42.710;27.258;2023-06-14T04:04:21;99737.38;;;26.46;96.31
12349;BME280;5974;42.710;27.258;2023-06-14T04:06:54;99744.66;;;27.83;81.47
12349;BME280;5974;42.710;27.258;2023-06-14T04:09:22;99752.78;;;30.27;71.42
12349;BME280;5974;42.710;27.258;2023-06-14T04:11:50;99742.38;;;32.90;60.22
12349;BME280;5974;42.710;27.258;2023-06-14T04:14:18;99751.88;;;31.36;57.86
12349;BME280;5974;42.710;27.258;2023-06-14T04:16:46;99755.66;;;33.11;56.92
12349;BME280;5974;42.710;27.258;2023-06-14T04:19:14;99752.13;;;33.04;53.75
12349;BME280;5974;42.710;27.258;2023-06-14T04:21:41;99755.53;;;36.56;47.58
12349;BME280;5974;42.710;27.258;2023-06-14T04:24:08;99755.47;;;32.99;50.44
12349;BME280;5974;42.710;27.258;2023-06-14T04:26:38;99753.25;;;33.34;50.90
12349;BME280;5974;42.710;27.258;2023-06-14T04:29:05;99756.13;;;33.39;49.18
12349;BME280;5974;42.710;27.258;2023-06-14T04:31:32;99758.25;;;33.93;48.74
12349;BME280;5974;42.710;27.258;2023-06-14T04:34:01;99763.34;;;34.08;49.13
12349;BME280;5974;42.710;27.258;2023-06-14T04:36:31;99764.50;;;34.98;48.07
12349;BME280;5974;42.710;27.258;2023-06-14T04:39:00;99768.41;;;36.84;44.00
12349;BME280;5974;42.710;27.258;2023-06-14T04:41:28;99771.16;;;34.65;45.82
12349;BME280;5974;42.710;27.258;2023-06-14T04:43:56;99776.69;;;34.52;46.36
12349;BME280;5974;42.710;27.258;2023-06-14T04:46:26;99772.09;;;34.35;46.07
12349;BME280;5974;42.710;27.258;2023-06-14T04:48:54;99779.06;;;35.51;45.47
12349;BME280;5974;42.710;27.258;2023-06-14T04:51:22;99798.44;;;38.69;41.26
12349;BME280;5974;42.710;27.258;2023-06-14T04:53:55;99796.94;;;38.06;41.32
12349;BME280;5974;42.710;27.258;2023-06-14T04:56:23;99799.22;;;36.15;43.11
12349;BME280;5974;42.710;27.258;2023-06-14T04:58:51;99799.13;;;36.56;42.95
12349;BME280;5974;42.710;27.258;2023-06-14T05:01:19;99794.28;;;35.70;44.54
12349;BME280;5974;42.710;27.258;2023-06-14T05:03:46;99800.13;;;35.56;44.01
12349;BME280;5974;42.710;27.258;2023-06-14T05:06:14;99799.06;;;35.98;44.03
12349;BME280;5974;42.710;27.258;2023-06-14T05:08:44;99803.03;;;36.14;43.51
12349;BME280;5974;42.710;27.258;2023-06-14T05:11:11;99806.47;;;36.79;42.03
12349;BME280;5974;42.710;27.258;2023-06-14T05:13:37;99808.25;;;36.50;41.62
12349;BME280;5974;42.710;27.258;2023-06-14T05:16:07;99817.13;;;37.60;41.60
12349;BME280;5974;42.710;27.258;2023-06-14T05:18:34;99811.91;;;38.92;38.46
12349;BME280;5974;42.710;27.258;2023-06-14T05:21:01;99827.97;;;41.38;35.67
12349;BME280;5974;42.710;27.258;2023-06-14T05:23:29;99821.25;;;40.25;35.91
12349;BME280;5974;42.710;27.258;2023-06-14T05:25:57;99820.19;;;38.09;37.31
12349;BME280;5974;42.710;27.258;2023-06-14T05:28:24;99821.88;;;36.85;39.47
12349;BME280;5974;42.710;27.258;2023-06-14T05:30:51;99829.53;;;35.17;41.19
12349;BME280;5974;42.710;27.258;2023-06-14T05:33:18;99828.34;;;34.27;42.97
12349;BME280;5974;42.710;27.258;2023-06-14T05:35:45;99823.88;;;36.20;40.75
12349;BME280;5974;42.710;27.258;2023-06-14T05:38:12;99842.81;;;37.59;38.49
12349;BME280;5974;42.710;27.258;2023-06-14T05:40:39;99835.31;;;35.99;40.87
12349;BME280;5974;42.710;27.258;2023-06-14T05:43:08;99833.53;;;34.78;41.77
12349;BME280;5974;42.710;27.258;2023-06-14T05:45:35;99836.72;;;36.01;41.61
12349;BME280;5974;42.710;27.258;2023-06-14T05:48:03;99838.41;;;35.72;41.59
12349;BME280;5974;42.710;27.258;2023-06-14T05:50:30;99820.81;;;33.73;43.63
12349;BME280;5974;42.710;27.258;2023-06-14T05:52:57;99847.94;;;34.05;43.88
12349;BME280;5974;42.710;27.258;2023-06-14T05:55:24;99845.97;;;34.86;42.74
12349;BME280;5974;42.710;27.258;2023-06-14T05:57:51;99854.94;;;35.05;42.96
12349;BME280;5974;42.710;27.258;2023-06-14T06:00:20;99851.34;;;35.77;42.02
12349;BME280;5974;42.710;27.258;2023-06-14T06:02:47;99848.31;;;36.61;40.67
12349;BME280;5974;42.710;27.258;2023-06-14T06:05:14;99849.81;;;36.46;40.67
12349;BME280;5974;42.710;27.258;2023-06-14T06:07:42;99854.34;;;35.03;42.73
12349;BME280;5974;42.710;27.258;2023-06-14T06:10:10;99849.59;;;34.98;42.83
12349;BME280;5974;42.710;27.258;2023-06-14T06:12:37;99853.47;;;35.09;43.46
12349;BME280;5974;42.710;27.258;2023-06-14T06:15:05;99857.28;;;36.27;40.60
12349;BME280;5974;42.710;27.258;2023-06-14T06:17:34;99854.69;;;35.13;42.16
12349;BME280;5974;42.710;27.258;2023-06-14T06:20:01;99844.84;;;35.30;42.89
12349;BME280;5974;42.710;27.258;2023-06-14T06:22:28;99856.69;;;36.25;42.23
12349;BME280;5974;42.710;27.258;2023-06-14T06:24:55;99853.72;;;35.25;41.20
12349;BME280;5974;42.710;27.258;2023-06-14T06:27:22;99858.56;;;33.37;43.89
12349;BME280;5974;42.710;27.258;2023-06-14T06:29:49;99850.28;;;34.51;43.12
12349;BME280;5974;42.710;27.258;2023-06-14T06:32:17;99846.59;;;34.70;43.49
12349;BME280;5974;42.710;27.258;2023-06-14T06:34:46;99846.00;;;34.61;43.44
12349;BME280;5974;42.710;27.258;2023-06-14T06:37:13;99847.09;;;34.04;44.20
12349;BME280;5974;42.710;27.258;2023-06-14T06:39:40;99847.25;;;34.83;43.09
12349;BME280;5974;42.710;27.258;2023-06-14T06:42:07;99851.72;;;34.96;42.53
12349;BME280;5974;42.710;27.258;2023-06-14T06:44:37;99849.50;;;35.05;43.60
12349;BME280;5974;42.710;27.258;2023-06-14T06:47:04;99848.41;;;34.51;43.49
12349;BME280;5974;42.710;27.258;2023-06-14T06:49:31;99847.41;;;35.07;42.92
12349;BME280;5974;42.710;27.258;2023-06-14T06:52:04;99849.44;;;34.50;43.18
12349;BME280;5974;42.710;27.258;2023-06-14T06:54:31;99838.22;;;33.91;44.76
12349;BME280;5974;42.710;27.258;2023-06-14T06:56:59;99856.03;;;32.58;46.09
12349;BME280;5974;42.710;27.258;2023-06-14T06:59:26;99847.06;;;32.71;45.51
12349;BME280;5974;42.710;27.258;2023-06-14T07:01:53;99861.38;;;33.55;44.75
12349;BME280;5974;42.710;27.258;2023-06-14T07:04:20;99853.13;;;33.37;44.79
12349;BME280;5974;42.710;27.258;2023-06-14T07:06:47;99861.34;;;33.68;44.82
12349;BME280;5974;42.710;27.258;2023-06-14T07:09:15;99858.59;;;35.17;42.67
12349;BME280;5974;42.710;27.258;2023-06-14T07:11:44;99867.38;;;34.58;42.76
12349;BME280;5974;42.710;27.258;2023-06-14T07:14:11;99867.06;;;35.09;42.84
12349;BME280;5974;42.710;27.258;2023-06-14T07:16:38;99873.22;;;36.12;40.58
12349;BME280;5974;42.710;27.258;2023-06-14T07:19:06;99879.56;;;37.85;38.72
12349;BME280;5974;42.710;27.258;2023-06-14T07:21:33;99863.41;;;37.67;38.86
12349;BME280;5974;42.710;27.258;2023-06-14T07:24:00;99877.84;;;39.77;35.82
12349;BME280;5974;42.710;27.258;2023-06-14T07:26:28;99876.06;;;39.93;36.03
12349;BME280;5974;42.710;27.258;2023-06-14T07:28:55;99874.72;;;39.03;36.51
12349;BME280;5974;42.710;27.258;2023-06-14T07:31:22;99875.81;;;36.71;38.41
12349;BME280;5974;42.710;27.258;2023-06-14T07:33:49;99879.81;;;36.04;40.13
12349;BME280;5974;42.710;27.258;2023-06-14T07:36:16;99870.78;;;36.33;39.48
12349;BME280;5974;42.710;27.258;2023-06-14T07:38:43;99880.16;;;33.50;43.37
12349;BME280;5974;42.710;27.258;2023-06-14T07:41:10;99875.00;;;34.43;42.51
12349;BME280;5974;42.710;27.258;2023-06-14T07:43:38;99885.09;;;37.33;39.25
12349;BME280;5974;42.710;27.258;2023-06-14T07:46:05;99876.63;;;37.07;39.30
12349;BME280;5974;42.710;27.258;2023-06-14T07:48:33;99874.13;;;38.63;37.22
12349;BME280;5974;42.710;27.258;2023-06-14T07:51:00;99878.38;;;35.60;39.87
12349;BME280;5974;42.710;27.258;2023-06-14T07:53:27;99889.69;;;35.03;40.77
12349;BME280;5974;42.710;27.258;2023-06-14T07:55:54;99884.81;;;33.43;43.46
12349;BME280;5974;42.710;27.258;2023-06-14T07:58:21;99878.28;;;32.80;43.73
12349;BME280;5974;42.710;27.258;2023-06-14T08:00:49;99880.50;;;29.92;49.12
12349;BME280;5974;42.710;27.258;2023-06-14T08:03:16;99881.28;;;28.77;51.74
12349;BME280;5974;42.710;27.258;2023-06-14T08:05:43;99876.38;;;27.75;54.94
12349;BME280;5974;42.710;27.258;2023-06-14T08:08:10;99877.56;;;27.80;55.27
12349;BME280;5974;42.710;27.258;2023-06-14T08:10:38;99890.03;;;27.34;57.03
12349;BME280;5974;42.710;27.258;2023-06-14T08:13:05;99887.47;;;27.41;58.41
12349;BME280;5974;42.710;27.258;2023-06-14T08:15:32;99887.38;;;28.19;55.80
12349;BME280;5974;42.710;27.258;2023-06-14T08:18:00;99886.97;;;28.07;57.02
12349;BME280;5974;42.710;27.258;2023-06-14T08:20:27;99884.78;;;27.80;57.21
12349;BME280;5974;42.710;27.258;2023-06-14T08:22:55;99891.53;;;27.98;56.87
12349;BME280;5974;42.710;27.258;2023-06-14T08:25:22;99890.78;;;27.59;59.09
12349;BME280;5974;42.710;27.258;2023-06-14T08:27:49;99885.28;;;27.53;58.61
12349;BME280;5974;42.710;27.258;2023-06-14T08:30:16;99895.88;;;27.77;58.56
12349;BME280;5974;42.710;27.258;2023-06-14T08:32:43;99890.09;;;27.57;59.17
12349;BME280;5974;42.710;27.258;2023-06-14T08:35:12;99878.56;;;28.02;57.13
12349;BME280;5974;42.710;27.258;2023-06-14T08:37:39;99868.22;;;27.91;58.78
12349;BME280;5974;42.710;27.258;2023-06-14T08:40:17;99867.38;;;27.29;59.79
12349;BME280;5974;42.710;27.258;2023-06-14T08:42:47;99871.72;;;27.46;59.59
12349;BME280;5974;42.710;27.258;2023-06-14T08:45:16;99875.25;;;27.00;60.62
12349;BME280;5974;42.710;27.258;2023-06-14T08:47:44;99880.44;;;27.40;60.81
12349;BME280;5974;42.710;27.258;2023-06-14T08:50:13;99866.31;;;27.77;58.94
12349;BME280;5974;42.710;27.258;2023-06-14T08:52:45;99870.53;;;27.49;59.53
12349;BME280;5974;42.710;27.258;2023-06-14T08:55:16;99871.38;;;27.49;58.95
12349;BME280;5974;42.710;27.258;2023-06-14T08:57:46;99869.34;;;27.04;59.92
12349;BME280;5974;42.710;27.258;2023-06-14T09:00:14;99858.16;;;27.01;61.82
12349;BME280;5974;42.710;27.258;2023-06-14T09:02:41;99860.03;;;27.62;60.81
12349;BME280;5974;42.710;27.258;2023-06-14T09:05:09;99855.41;;;27.48;61.50
12349;BME280;5974;42.710;27.258;2023-06-14T09:07:38;99854.34;;;27.57;62.46
12349;BME280;5974;42.710;27.258;2023-06-14T09:10:08;99856.16;;;27.64;61.99
12349;BME280;5974;42.710;27.258;2023-06-14T09:12:35;99859.41;;;27.52;59.25
12349;BME280;5974;42.710;27.258;2023-06-14T09:15:03;99860.78;;;27.09;60.32
12349;BME280;5974;42.710;27.258;2023-06-14T09:17:32;99863.06;;;26.73;61.91
12349;BME280;5974;42.710;27.258;2023-06-14T09:20:01;99859.91;;;26.53;62.03
12349;BME280;5974;42.710;27.258;2023-06-14T09:22:31;99851.94;;;27.00;60.06
12349;BME280;5974;42.710;27.258;2023-06-14T09:25:00;99856.66;;;27.29;60.13
12349;BME280;5974;42.710;27.258;2023-06-14T09:27:29;99861.00;;;27.30;61.68
12349;BME280;5974;42.710;27.258;2023-06-14T09:29:56;99856.78;;;27.35;62.64
12349;BME280;5974;42.710;27.258;2023-06-14T09:32:23;99851.38;;;27.97;61.60
12349;BME280;5974;42.710;27.258;2023-06-14T09:34:50;99862.72;;;27.84;59.53
12349;BME280;5974;42.710;27.258;2023-06-14T09:37:27;99856.72;;;27.52;60.76
12349;BME280;5974;42.710;27.258;2023-06-14T09:39:55;99857.28;;;27.70;60.90
12349;BME280;5974;42.710;27.258;2023-06-14T09:42:24;99862.19;;;27.66;60.32
12349;BME280;5974;42.710;27.258;2023-06-14T09:44:53;99854.25;;;27.73;60.47
12349;BME280;5974;42.710;27.258;2023-06-14T09:47:20;99848.25;;;28.31;60.71
12349;BME280;5974;42.710;27.258;2023-06-14T09:49:47;99855.38;;;27.56;60.96
12349;BME280;5974;42.710;27.258;2023-06-14T09:52:16;99847.31;;;27.56;60.93
12349;BME280;5974;42.710;27.258;2023-06-14T09:54:45;99795.91;;;26.97;62.26
12349;BME280;5974;42.710;27.258;2023-06-14T09:57:13;99845.69;;;27.47;61.88
12349;BME280;5974;42.710;27.258;2023-06-14T09:59:43;99849.84;;;27.80;61.75
12349;BME280;5974;42.710;27.258;2023-06-14T10:02:25;99846.31;;;27.79;60.55
12349;BME280;5974;42.710;27.258;2023-06-14T10:04:57;99851.63;;;27.65;60.39
12349;BME280;5974;42.710;27.258;2023-06-14T10:07:26;99852.72;;;27.48;59.32
12349;BME280;5974;42.710;27.258;2023-06-14T10:09:57;99852.56;;;27.72;59.92
12349;BME280;5974;42.710;27.258;2023-06-14T10:12:24;99852.09;;;28.51;58.09
12349;BME280;5974;42.710;27.258;2023-06-14T10:14:53;99853.88;;;28.59;60.50
12349;BME280;5974;42.710;27.258;2023-06-14T10:17:29;99858.91;;;28.24;59.85
12349;BME280;5974;42.710;27.258;2023-06-14T10:20:07;99865.53;;;27.37;61.58
12349;BME280;5974;42.710;27.258;2023-06-14T10:22:44;99856.47;;;27.92;60.76
12349;BME280;5974;42.710;27.258;2023-06-14T10:25:13;99852.56;;;27.94;60.08
12349;BME280;5974;42.710;27.258;2023-06-14T10:27:52;99853.88;;;28.21;59.33
12349;BME280;5974;42.710;27.258;2023-06-14T10:30:25;99820.91;;;27.82;59.49
12349;BME280;5974;42.710;27.258;2023-06-14T10:33:05;99860.09;;;28.22;58.83
12349;BME280;5974;42.710;27.258;2023-06-14T10:35:32;99848.31;;;28.45;58.31
12349;BME280;5974;42.710;27.258;2023-06-14T10:38:11;99847.75;;;28.50;58.58
12349;BME280;5974;42.710;27.258;2023-06-14T10:40:38;99850.94;;;28.68;55.95
12349;BME280;5974;42.710;27.258;2023-06-14T10:43:26;99848.44;;;28.96;57.37
12349;BME280;5974;42.710;27.258;2023-06-14T10:46:14;99860.53;;;28.85;56.58
12349;BME280;5974;42.710;27.258;2023-06-14T10:48:42;99851.41;;;28.72;56.33
12349;BME280;5974;42.710;27.258;2023-06-14T10:51:16;99848.06;;;28.70;56.63
12349;BME280;5974;42.710;27.258;2023-06-14T10:53:46;99851.47;;;28.64;54.84
12349;BME280;5974;42.710;27.258;2023-06-14T10:56:29;99842.31;;;28.73;56.55
12349;BME280;5974;42.710;27.258;2023-06-14T10:58:57;99844.34;;;29.00;55.57
12349;BME280;5974;42.710;27.258;2023-06-14T11:01:35;99843.09;;;29.46;53.61
12349;BME280;5974;42.710;27.258;2023-06-14T11:04:10;99841.63;;;29.44;53.28
12349;BME280;5974;42.710;27.258;2023-06-14T11:06:46;99842.28;;;29.17;54.02
12349;BME280;5974;42.710;27.258;2023-06-14T11:09:39;99838.53;;;28.82;55.72
12349;BME280;5974;42.710;27.258;2023-06-14T11:12:12;99837.81;;;28.50;54.48
12349;BME280;5974;42.710;27.258;2023-06-14T11:14:39;99836.09;;;28.20;54.36
12349;BME280;5974;42.710;27.258;2023-06-14T11:17:08;99835.13;;;28.50;55.18
12349;BME280;5974;42.710;27.258;2023-06-14T11:19:35;99831.19;;;28.76;53.68
12349;BME280;5974;42.710;27.258;2023-06-14T11:22:02;99843.97;;;29.03;53.71
12349;BME280;5974;42.710;27.258;2023-06-14T11:24:29;99830.41;;;29.11;54.54
12349;BME280;5974;42.710;27.258;2023-06-14T11:26:55;99827.53;;;29.13;52.29
12349;BME280;5974;42.710;27.258;2023-06-14T11:29:23;99837.94;;;28.86;51.82
12349;BME280;5974;42.710;27.258;2023-06-14T11:31:50;99837.69;;;28.67;51.95
12349;BME280;5974;42.710;27.258;2023-06-14T11:34:19;99839.34;;;28.68;53.25
12349;BME280;5974;42.710;27.258;2023-06-14T11:36:46;99828.50;;;28.76;54.29
12349;BME280;5974;42.710;27.258;2023-06-14T11:39:13;99824.63;;;29.43;54.08
12349;BME280;5974;42.710;27.258;2023-06-14T11:41:42;99826.31;;;29.30;53.91
12349;BME280;5974;42.710;27.258;2023-06-14T11:44:10;99815.63;;;29.79;52.75
12349;BME280;5974;42.710;27.258;2023-06-14T11:46:37;99816.34;;;29.87;52.49
12349;BME280;5974;42.710;27.258;2023-06-14T11:49:04;99814.25;;;29.83;52.56
12349;BME280;5974;42.710;27.258;2023-06-14T11:51:36;99813.94;;;29.56;53.20
12349;BME280;5974;42.710;27.258;2023-06-14T11:54:04;99806.91;;;29.55;51.81
12349;BME280;5974;42.710;27.258;2023-06-14T11:56:32;99806.03;;;29.91;52.56
12349;BME280;5974;42.710;27.258;2023-06-14T11:58:59;99812.09;;;29.21;53.43
12349;BME280;5974;42.710;27.258;2023-06-14T12:01:26;99754.28;;;29.38;53.20
12349;BME280;5974;42.710;27.258;2023-06-14T12:03:54;99798.88;;;29.41;52.80
12349;BME280;5974;42.710;27.258;2023-06-14T12:06:27;99807.72;;;29.92;52.52
12349;BME280;5974;42.710;27.258;2023-06-14T12:08:59;99797.97;;;30.19;51.78
12349;BME280;5974;42.710;27.258;2023-06-14T12:11:32;99809.28;;;30.07;52.92
12349;BME280;5974;42.710;27.258;2023-06-14T12:13:59;99797.16;;;30.25;52.19
12349;BME280;5974;42.710;27.258;2023-06-14T12:16:30;99797.03;;;30.05;53.27
12349;BME280;5974;42.710;27.258;2023-06-14T12:19:00;99785.16;;;30.27;53.11
12349;BME280;5974;42.710;27.258;2023-06-14T12:21:28;99795.94;;;30.48;51.99
12349;BME280;5974;42.710;27.258;2023-06-14T12:23:55;99782.50;;;30.34;49.77
12349;BME280;5974;42.710;27.258;2023-06-14T12:26:24;99789.88;;;30.19;50.30
12349;BME280;5974;42.710;27.258;2023-06-14T12:28:52;99785.97;;;30.00;51.11
12349;BME280;5974;42.710;27.258;2023-06-14T12:31:19;99785.13;;;29.99;51.88
12349;BME280;5974;42.710;27.258;2023-06-14T12:33:46;99780.38;;;30.50;51.86
12349;BME280;5974;42.710;27.258;2023-06-14T12:36:14;99780.50;;;30.77;51.28
12349;BME280;5974;42.710;27.258;2023-06-14T12:38:42;99781.66;;;30.33;53.31
12349;BME280;5974;42.710;27.258;2023-06-14T12:41:09;99778.00;;;30.13;51.59
12349;BME280;5974;42.710;27.258;2023-06-14T12:43:37;99779.72;;;30.21;50.42
12349;BME280;5974;42.710;27.258;2023-06-14T12:46:04;99776.88;;;29.80;50.31
12349;BME280;5974;42.710;27.258;2023-06-14T12:48:31;99775.63;;;30.31;50.82
12349;BME280;5974;42.710;27.258;2023-06-14T12:50:59;99772.00;;;30.39;51.67
12349;BME280;5974;42.710;27.258;2023-06-14T12:53:26;99782.31;;;30.35;53.26
12349;BME280;5974;42.710;27.258;2023-06-14T12:55:53;99782.25;;;30.01;53.24
12349;BME280;5974;42.710;27.258;2023-06-14T12:58:20;99777.34;;;29.41;54.64
12349;BME280;5974;42.710;27.258;2023-06-14T13:00:50;99772.50;;;29.36;54.19
12349;BME280;5974;42.710;27.258;2023-06-14T13:03:17;99785.50;;;28.97;54.09